createdAt,value
2019-01-24T00:03:45.609Z,100
2019-01-24T00:08:45.593Z,100
2019-01-24T00:13:45.703Z,100
2019-01-24T00:18:45.589Z,100
2019-01-24T00:23:45.606Z,100
2019-01-24T00:28:45.613Z,100
2019-01-24T00:33:45.614Z,100
2019-01-24T00:38:45.614Z,100
2019-01-24T00:43:45.638Z,100
2019-01-24T00:48:45.665Z,100
2019-01-24T00:53:45.760Z,100
2019-01-24T00:58:45.635Z,100
2019-01-24T01:03:45.630Z,100
2019-01-24T01:08:45.647Z,100
2019-01-24T01:13:45.633Z,100
2019-01-24T01:18:45.641Z,100
2019-01-24T01:23:45.670Z,100
2019-01-24T01:28:45.611Z,100
2019-01-24T01:33:46.618Z,100
2019-01-24T01:38:45.785Z,100
2019-01-24T01:43:45.651Z,100
2019-01-24T01:48:45.829Z,100
2019-01-24T01:53:45.666Z,100
2019-01-24T01:58:45.788Z,100
2019-01-24T02:03:45.644Z,100
2019-01-24T02:08:45.684Z,100
2019-01-24T02:13:45.674Z,100
2019-01-24T02:18:45.667Z,100
2019-01-24T02:23:45.683Z,100
2019-01-24T02:28:45.624Z,99.4
2019-01-24T02:33:45.677Z,99.2
2019-01-24T02:38:45.849Z,99.3
2019-01-24T02:43:45.695Z,99.6
2019-01-24T02:48:45.821Z,99.1
2019-01-24T02:53:45.688Z,99
2019-01-24T02:58:45.673Z,98.8
2019-01-24T03:03:45.681Z,98.9
2019-01-24T03:08:45.867Z,98.8
2019-01-24T03:13:45.677Z,98.6
2019-01-24T03:18:45.706Z,98.4
2019-01-24T03:23:45.689Z,98.3
2019-01-24T03:28:45.892Z,97.9
2019-01-24T03:33:45.713Z,98
2019-01-24T03:38:45.716Z,97.9
2019-01-24T03:43:45.714Z,98.5
2019-01-24T03:48:45.952Z,98.9
2019-01-24T03:53:45.750Z,98.1
2019-01-24T03:58:45.687Z,98
2019-01-24T04:03:45.724Z,97.8
2019-01-24T04:08:45.723Z,97.9
2019-01-24T04:13:45.916Z,98.6
2019-01-24T04:18:45.751Z,98
2019-01-24T04:23:45.719Z,97.6
2019-01-24T04:28:45.754Z,98.1
2019-01-24T04:33:45.925Z,98.2
2019-01-24T04:38:45.754Z,97.6
2019-01-24T04:43:45.751Z,98
2019-01-24T04:48:45.766Z,97.6
2019-01-24T04:53:45.760Z,97.9
2019-01-24T04:58:45.763Z,97.5
2019-01-24T05:03:45.752Z,98
2019-01-24T05:08:45.771Z,97.5
2019-01-24T05:13:45.919Z,97.8
2019-01-24T05:18:45.831Z,97.6
2019-01-24T05:23:45.868Z,97.8
2019-01-24T05:28:45.757Z,98.7
2019-01-24T05:33:45.785Z,98.9
2019-01-24T05:38:45.794Z,99.1
2019-01-24T05:43:45.784Z,98.9
2019-01-24T05:48:46.074Z,99.3
2019-01-24T05:53:45.776Z,99.8
2019-01-24T05:58:45.791Z,100
2019-01-24T06:03:45.789Z,100
2019-01-24T06:08:45.782Z,100
2019-01-24T06:13:45.777Z,100
2019-01-24T06:18:45.798Z,100
2019-01-24T06:23:45.825Z,100
2019-01-24T06:28:45.787Z,100
2019-01-24T06:33:46.029Z,100
2019-01-24T06:38:45.804Z,100
2019-01-24T06:43:46.008Z,100
2019-01-24T06:48:46.036Z,100
2019-01-24T06:53:45.824Z,100
2019-01-24T06:58:45.929Z,100
2019-01-24T07:03:45.851Z,100
2019-01-24T07:08:45.927Z,100
2019-01-24T07:13:45.832Z,100
2019-01-24T07:18:45.861Z,100
2019-01-24T07:23:45.838Z,100
2019-01-24T07:28:45.835Z,100
2019-01-24T07:33:45.844Z,100
2019-01-24T07:38:45.848Z,100
2019-01-24T07:43:45.824Z,100
2019-01-24T07:48:45.848Z,100
2019-01-24T07:53:45.847Z,100
2019-01-24T07:58:46.189Z,100
2019-01-24T08:03:45.811Z,100
2019-01-24T08:08:45.872Z,100
2019-01-24T08:13:45.873Z,100
2019-01-24T08:18:45.861Z,100
2019-01-24T08:23:45.844Z,99.4
2019-01-24T08:28:46.127Z,99.8
2019-01-24T08:33:45.885Z,99.4
2019-01-24T08:38:45.870Z,99
2019-01-24T08:43:45.882Z,98.7
2019-01-24T08:48:45.879Z,98.3
2019-01-24T08:53:45.882Z,98.5
2019-01-24T08:58:45.900Z,98.3
2019-01-24T09:03:45.896Z,97.5
2019-01-24T09:08:45.884Z,97.6
2019-01-24T09:13:45.888Z,96.7
2019-01-24T09:18:45.878Z,96.8
2019-01-24T09:23:45.897Z,95.9
2019-01-24T09:28:46.118Z,94.9
2019-01-24T09:33:45.927Z,93.2
2019-01-24T09:38:45.913Z,94
2019-01-24T09:43:45.893Z,93.2
2019-01-24T09:48:46.138Z,92.6
2019-01-24T09:53:45.926Z,91.6
2019-01-24T09:58:45.903Z,90.5
2019-01-24T10:03:45.925Z,89.8
2019-01-24T10:08:45.920Z,89
2019-01-24T10:13:45.933Z,88
2019-01-24T10:18:45.945Z,88.4
2019-01-24T10:23:45.943Z,87.8
2019-01-24T10:28:46.094Z,87.2
2019-01-24T10:33:45.928Z,87.1
2019-01-24T10:38:45.957Z,86.1
2019-01-24T10:43:45.932Z,85.9
2019-01-24T10:48:45.950Z,85.6
2019-01-24T10:53:45.939Z,85
2019-01-24T10:58:45.952Z,84.4
2019-01-24T11:03:45.956Z,83.8
2019-01-24T11:08:45.971Z,82.8
2019-01-24T11:13:45.933Z,83.3
2019-01-24T11:18:45.954Z,82.6
2019-01-24T11:23:46.220Z,82.4
2019-01-24T11:28:45.960Z,82.9
2019-01-24T11:33:46.136Z,84.3
2019-01-24T11:38:45.919Z,82.9
2019-01-24T11:43:46.223Z,82.7
2019-01-24T11:48:46.140Z,83.4
2019-01-24T11:53:45.960Z,82.1
2019-01-24T11:58:45.981Z,82.6
2019-01-24T12:03:46.064Z,82.3
2019-01-24T12:08:45.976Z,83
2019-01-24T12:13:46.026Z,82.6
2019-01-24T12:18:46.136Z,82.3
2019-01-24T12:23:46.013Z,83
2019-01-24T12:28:46.226Z,82.3
2019-01-24T12:33:45.984Z,81.5
2019-01-24T12:38:46.083Z,82
2019-01-24T12:43:46.219Z,82.6
2019-01-24T12:48:47.425Z,82.3
2019-01-24T12:53:46.177Z,82.4
2019-01-24T12:58:46.191Z,81
2019-01-24T13:03:46.018Z,81.3
2019-01-24T13:08:46.078Z,82
2019-01-24T13:13:46.250Z,82.4
2019-01-24T13:18:46.031Z,81.4
2019-01-24T13:23:46.188Z,82.2
2019-01-24T13:28:46.234Z,83.6
2019-01-24T13:33:46.565Z,83.4
2019-01-24T13:38:46.024Z,83.7
2019-01-24T13:43:46.031Z,83.6
2019-01-24T13:48:46.043Z,83.6
2019-01-24T13:53:46.055Z,83.5
2019-01-24T13:58:46.035Z,83
2019-01-24T14:03:46.560Z,84.5
2019-01-24T14:08:46.169Z,84.2
2019-01-24T14:13:46.039Z,84.7
2019-01-24T14:18:46.048Z,85
2019-01-24T14:23:46.059Z,85.3
2019-01-24T14:28:46.155Z,85.6
2019-01-24T14:33:46.082Z,85.7
2019-01-24T14:38:46.080Z,86.4
2019-01-24T14:43:46.215Z,85.6
2019-01-24T14:48:46.064Z,86.9
2019-01-24T14:53:46.070Z,87
2019-01-24T14:58:46.070Z,86.5
2019-01-24T15:03:46.250Z,87.2
2019-01-24T15:08:46.069Z,87.7
2019-01-24T15:13:46.141Z,88.4
2019-01-24T15:18:46.142Z,89.7
2019-01-24T15:23:46.105Z,89.7
2019-01-24T15:28:46.094Z,90.4
2019-01-24T15:33:46.112Z,91.1
2019-01-24T15:38:46.095Z,91.4
2019-01-24T15:43:46.344Z,91.9
2019-01-24T15:48:46.101Z,91.8
2019-01-24T15:53:46.104Z,92.9
2019-01-24T15:58:46.083Z,93.4
2019-01-24T16:03:46.119Z,93.3
2019-01-24T16:08:46.086Z,92.7
2019-01-24T16:13:46.096Z,92.8
2019-01-24T16:18:46.107Z,93.4
2019-01-24T16:23:46.098Z,92.9
2019-01-24T16:28:46.137Z,93.4
2019-01-24T16:33:46.096Z,93.1
2019-01-24T16:38:46.154Z,93.8
2019-01-24T16:43:46.114Z,93.6
2019-01-24T16:48:46.670Z,94.1
2019-01-24T16:53:46.143Z,94.5
2019-01-24T16:58:46.135Z,94.4
2019-01-24T17:03:46.099Z,93.9
2019-01-24T17:08:46.162Z,94.5
2019-01-24T17:13:46.228Z,95.2
2019-01-24T17:18:46.153Z,94.5
2019-01-24T17:23:46.178Z,94.8
2019-01-24T17:28:46.156Z,94.9
2019-01-24T17:33:46.147Z,94.8
2019-01-24T17:38:46.152Z,95.1
2019-01-24T17:43:46.160Z,95.1
2019-01-24T17:48:46.197Z,94.5
2019-01-24T17:53:46.222Z,94.2
2019-01-24T17:58:46.268Z,94
2019-01-24T18:03:47.013Z,94
2019-01-24T18:08:46.200Z,93.6
2019-01-24T18:13:46.178Z,93
2019-01-24T18:18:46.218Z,92.4
2019-01-24T18:23:46.254Z,92.4
2019-01-24T18:28:46.409Z,90.9
2019-01-24T18:33:46.273Z,90.1
2019-01-24T18:38:46.235Z,89.8
2019-01-24T18:43:46.411Z,90.3
2019-01-24T18:48:46.203Z,90.6
2019-01-24T18:53:46.227Z,90.8
2019-01-24T18:58:46.434Z,91.1
2019-01-24T19:03:46.225Z,91.3
2019-01-24T19:08:46.364Z,91.3
2019-01-24T19:13:46.213Z,91.8
2019-01-24T19:18:46.225Z,92.6
2019-01-24T19:23:48.927Z,92.8
2019-01-24T19:28:46.208Z,92.5
2019-01-24T19:33:46.187Z,93
2019-01-24T19:38:53.391Z,93.3
2019-01-24T19:43:46.210Z,93.2
2019-01-24T19:48:46.201Z,92.9
2019-01-24T19:53:46.294Z,93.3
2019-01-24T19:58:46.440Z,94
2019-01-24T20:03:46.223Z,94.6
2019-01-24T20:08:46.236Z,93.9
2019-01-24T20:13:46.265Z,93.9
2019-01-24T20:18:46.638Z,93.4
2019-01-24T20:23:46.251Z,93.9
2019-01-24T20:28:47.381Z,92.9
2019-01-24T20:33:46.853Z,93.6
2019-01-24T20:38:46.287Z,93.4
2019-01-24T20:43:46.249Z,93.3
2019-01-24T20:48:46.427Z,93.1
2019-01-24T20:53:46.300Z,93
2019-01-24T20:58:46.737Z,93.1
2019-01-24T21:03:46.574Z,93.1
2019-01-24T21:08:46.288Z,92.9
2019-01-24T21:13:46.335Z,93.6
2019-01-24T21:18:46.286Z,93.3
2019-01-24T21:23:46.321Z,93.4
2019-01-24T21:28:46.279Z,93.8
2019-01-24T21:33:46.260Z,93.2
2019-01-24T21:38:46.280Z,93.9
2019-01-24T21:43:46.308Z,93.6
2019-01-24T21:48:46.427Z,93.4
2019-01-24T21:53:46.326Z,94.1
2019-01-24T21:58:46.292Z,93.7
2019-01-24T22:03:46.495Z,94.3
2019-01-24T22:08:46.525Z,94.3
2019-01-24T22:13:46.303Z,94
2019-01-24T22:18:46.258Z,94.2
2019-01-24T22:23:46.279Z,94.2
2019-01-24T22:28:46.335Z,94.1
2019-01-24T22:33:46.328Z,94.7
2019-01-24T22:38:46.339Z,94.9
2019-01-24T22:43:46.311Z,94.7
2019-01-24T22:48:46.318Z,94.8
2019-01-24T22:53:46.394Z,95
2019-01-24T22:58:46.549Z,94.6
2019-01-24T23:03:46.350Z,94.6
2019-01-24T23:08:46.722Z,94.6
2019-01-24T23:13:46.453Z,95
2019-01-24T23:18:46.288Z,94.9
2019-01-24T23:23:46.352Z,95.5
2019-01-24T23:28:46.337Z,95.7
2019-01-24T23:33:46.333Z,95.6
2019-01-24T23:38:46.503Z,96
2019-01-24T23:43:46.362Z,95.8
2019-01-24T23:48:46.351Z,95.3
2019-01-24T23:53:46.502Z,95.3
2019-01-24T23:58:46.346Z,95.2
